createdAt,value
2023-05-08T00:00:40.524Z,93.50
2023-05-08T00:01:41.880Z,93.47
2023-05-08T00:02:39.818Z,93.45
2023-05-08T00:03:40.214Z,93.44
2023-05-08T00:04:39.642Z,93.43
2023-05-08T00:05:39.543Z,93.43
2023-05-08T00:06:39.388Z,93.50
2023-05-08T00:07:38.972Z,93.52
2023-05-08T00:08:38.955Z,93.51
2023-05-08T00:09:39.592Z,93.50
2023-05-08T00:10:39.493Z,93.50
2023-05-08T00:11:39.377Z,93.53
2023-05-08T00:12:39.325Z,93.54
2023-05-08T00:13:39.613Z,93.56
2023-05-08T00:14:39.477Z,93.55
2023-05-08T00:15:39.417Z,93.58
2023-05-08T00:16:39.176Z,93.53
2023-05-08T00:17:39.316Z,93.49
2023-05-08T00:18:38.993Z,93.45
2023-05-08T00:19:38.636Z,93.42
2023-05-08T00:20:39.268Z,93.41
2023-05-08T00:21:39.080Z,93.41
2023-05-08T00:22:38.841Z,93.45
2023-05-08T00:23:39.332Z,93.49
2023-05-08T00:24:39.141Z,93.57
2023-05-08T00:25:39.190Z,93.56
2023-05-08T00:26:39.408Z,93.54
2023-05-08T00:27:44.272Z,93.54
2023-05-08T00:28:39.482Z,93.54
2023-05-08T00:29:39.363Z,93.54
2023-05-08T00:30:39.556Z,93.55
2023-05-08T00:31:38.847Z,93.53
2023-05-08T00:32:39.726Z,93.56
2023-05-08T00:33:39.208Z,93.56
2023-05-08T00:34:38.966Z,93.55
2023-05-08T00:35:39.504Z,93.57
2023-05-08T00:36:39.131Z,93.58
2023-05-08T00:37:39.217Z,93.56
2023-05-08T00:38:39.075Z,93.58
2023-05-08T00:39:39.002Z,93.55
2023-05-08T00:40:39.134Z,93.50
2023-05-08T00:41:38.791Z,93.50
2023-05-08T00:42:39.344Z,93.47
2023-05-08T00:43:38.709Z,93.44
2023-05-08T00:44:39.184Z,93.45
2023-05-08T00:45:39.090Z,93.47
2023-05-08T00:46:39.151Z,93.48
2023-05-08T00:47:39.262Z,93.50
2023-05-08T00:48:39.342Z,93.55
2023-05-08T00:49:38.874Z,93.54
2023-05-08T00:50:39.693Z,93.56
2023-05-08T00:51:39.205Z,93.61
2023-05-08T00:52:38.960Z,93.66
2023-05-08T00:53:39.708Z,93.66
2023-05-08T00:54:39.408Z,93.62
2023-05-08T00:55:39.280Z,93.65
2023-05-08T00:56:38.943Z,93.65
2023-05-08T00:57:39.754Z,93.66
2023-05-08T00:58:39.401Z,93.66
2023-05-08T00:59:39.406Z,93.65
2023-05-08T01:00:40.626Z,93.66
2023-05-08T01:01:39.453Z,93.64
2023-05-08T01:02:39.500Z,93.68
2023-05-08T01:03:39.844Z,93.69
2023-05-08T01:04:39.425Z,93.73
2023-05-08T01:05:39.345Z,93.72
2023-05-08T01:06:39.031Z,93.71
2023-05-08T01:07:58.270Z,93.71
2023-05-08T01:08:39.214Z,93.67
2023-05-08T01:09:39.031Z,93.62
2023-05-08T01:10:38.882Z,93.60
2023-05-08T01:11:39.668Z,93.58
2023-05-08T01:12:39.290Z,93.58
2023-05-08T01:13:39.418Z,93.59
2023-05-08T01:14:39.441Z,93.55
2023-05-08T01:15:39.752Z,93.55
2023-05-08T01:16:39.748Z,93.58
2023-05-08T01:17:40.026Z,93.59
2023-05-08T01:18:40.012Z,93.62
2023-05-08T01:19:39.254Z,93.62
2023-05-08T01:20:39.648Z,93.57
2023-05-08T01:21:39.472Z,93.55
2023-05-08T01:22:39.502Z,93.56
2023-05-08T01:23:39.176Z,93.57
2023-05-08T01:24:39.551Z,93.55
2023-05-08T01:25:39.699Z,93.53
2023-05-08T01:26:39.533Z,93.55
2023-05-08T01:27:39.462Z,93.51
2023-05-08T01:28:39.505Z,93.49
2023-05-08T01:29:39.351Z,93.49
2023-05-08T01:30:39.363Z,93.51
2023-05-08T01:31:39.480Z,93.49
2023-05-08T01:32:39.467Z,93.48
2023-05-08T01:33:39.549Z,93.45
2023-05-08T01:34:39.750Z,93.38
2023-05-08T01:35:39.597Z,93.32
2023-05-08T01:36:39.297Z,93.26
2023-05-08T01:37:39.660Z,93.19
2023-05-08T01:38:39.685Z,93.08
2023-05-08T01:39:39.371Z,93.08
2023-05-08T01:40:39.345Z,93.05
2023-05-08T01:41:39.078Z,93.04
2023-05-08T01:42:39.413Z,93.03
2023-05-08T01:43:38.908Z,93.04
2023-05-08T01:44:39.555Z,93.08
2023-05-08T01:46:15.536Z,93.10
2023-05-08T01:46:43.313Z,93.14
2023-05-08T01:47:39.056Z,93.16
2023-05-08T01:48:39.084Z,93.15
2023-05-08T01:49:39.115Z,93.12
2023-05-08T01:50:39.165Z,93.11
2023-05-08T01:51:38.860Z,93.08
2023-05-08T01:52:39.619Z,93.04
2023-05-08T01:53:39.419Z,93.00
2023-05-08T01:54:39.435Z,92.94
2023-05-08T01:55:39.504Z,92.88
2023-05-08T01:56:39.255Z,92.90
2023-05-08T01:57:39.409Z,92.91
2023-05-08T01:58:39.114Z,92.89
2023-05-08T01:59:39.188Z,92.92
2023-05-08T02:00:40.223Z,92.99
2023-05-08T02:01:39.198Z,92.96
2023-05-08T02:02:39.647Z,92.94
2023-05-08T02:03:39.512Z,92.96
2023-05-08T02:04:39.349Z,92.97
2023-05-08T02:05:39.251Z,92.98
2023-05-08T02:06:39.222Z,93.06
2023-05-08T02:07:38.941Z,93.12
2023-05-08T02:08:39.662Z,93.16
2023-05-08T02:09:39.405Z,93.18
2023-05-08T02:10:39.566Z,93.17
2023-05-08T02:11:39.027Z,93.16
2023-05-08T02:12:39.089Z,93.18
2023-05-08T02:13:38.931Z,93.16
2023-05-08T02:14:39.595Z,93.12
2023-05-08T02:15:39.491Z,93.09
2023-05-08T02:16:39.558Z,93.06
2023-05-08T02:17:39.628Z,93.08
2023-05-08T02:18:39.412Z,93.08
2023-05-08T02:19:39.253Z,93.09
2023-05-08T02:20:39.059Z,93.10
2023-05-08T02:21:39.209Z,93.09
2023-05-08T02:22:39.288Z,93.14
2023-05-08T02:23:39.340Z,93.15
2023-05-08T02:24:39.227Z,93.15
2023-05-08T02:25:39.467Z,93.17
2023-05-08T02:26:39.011Z,93.21
2023-05-08T02:27:39.277Z,93.25
2023-05-08T02:28:39.386Z,93.31
2023-05-08T02:29:39.199Z,93.30
2023-05-08T02:30:39.471Z,93.25
2023-05-08T02:31:39.420Z,93.20
2023-05-08T02:32:39.489Z,93.17
2023-05-08T02:33:39.275Z,93.19
2023-05-08T02:34:45.197Z,93.24
2023-05-08T02:35:39.113Z,93.30
2023-05-08T02:36:39.016Z,93.29
2023-05-08T02:37:39.234Z,93.22
2023-05-08T02:38:52.933Z,93.22
2023-05-08T02:39:39.668Z,93.22
2023-05-08T02:40:39.488Z,93.22
2023-05-08T02:41:39.138Z,93.21
2023-05-08T02:42:39.081Z,93.18
2023-05-08T02:43:39.212Z,93.14
2023-05-08T02:44:38.736Z,93.13
2023-05-08T02:45:39.724Z,93.16
2023-05-08T02:46:39.705Z,93.15
2023-05-08T02:47:39.982Z,93.16
2023-05-08T02:48:39.310Z,93.18
2023-05-08T02:49:39.321Z,93.25
2023-05-08T02:50:39.453Z,93.33
2023-05-08T02:51:39.429Z,93.38
2023-05-08T02:52:39.654Z,93.39
2023-05-08T02:53:39.786Z,93.42
2023-05-08T02:54:39.759Z,93.43
2023-05-08T02:55:40.213Z,93.39
2023-05-08T02:56:39.362Z,93.33
2023-05-08T02:57:39.399Z,93.34
2023-05-08T02:58:39.340Z,93.37
2023-05-08T02:59:39.609Z,93.40
2023-05-08T03:00:40.689Z,93.38
2023-05-08T03:01:39.547Z,93.36
2023-05-08T03:02:39.946Z,93.34
2023-05-08T03:03:39.672Z,93.36
2023-05-08T03:04:39.848Z,93.33
2023-05-08T03:05:39.851Z,93.36
2023-05-08T03:06:39.788Z,93.41
2023-05-08T03:07:39.819Z,93.43
2023-05-08T03:08:39.983Z,93.43
2023-05-08T03:09:39.301Z,93.45
2023-05-08T03:10:39.932Z,93.49
2023-05-08T03:11:40.446Z,93.55
2023-05-08T03:12:42.171Z,93.56
2023-05-08T03:13:39.882Z,93.55
2023-05-08T03:14:39.401Z,93.59
2023-05-08T03:15:39.812Z,93.59
2023-05-08T03:16:40.019Z,93.60
2023-05-08T03:17:39.370Z,93.60
2023-05-08T03:18:39.003Z,93.56
2023-05-08T03:19:39.018Z,93.54
2023-05-08T03:20:38.907Z,93.55
2023-05-08T03:21:39.576Z,93.58
2023-05-08T03:22:39.067Z,93.60
2023-05-08T03:23:39.284Z,93.64
2023-05-08T03:24:39.223Z,93.71
2023-05-08T03:25:39.161Z,93.72
2023-05-08T03:26:38.917Z,93.72
2023-05-08T03:27:39.643Z,93.69
2023-05-08T03:28:39.511Z,93.73
2023-05-08T03:29:39.265Z,93.75
2023-05-08T03:30:39.652Z,93.76
2023-05-08T03:31:39.528Z,93.77
2023-05-08T03:32:39.828Z,93.76
2023-05-08T03:33:39.866Z,93.77
2023-05-08T03:34:39.872Z,93.83
2023-05-08T03:35:39.647Z,93.84
2023-05-08T03:36:39.457Z,93.88
2023-05-08T03:37:39.378Z,93.91
2023-05-08T03:38:39.347Z,93.90
2023-05-08T03:39:39.360Z,93.89
2023-05-08T03:40:39.488Z,93.88
2023-05-08T03:41:39.279Z,93.87
2023-05-08T03:42:39.298Z,93.86
2023-05-08T03:43:39.162Z,93.86
2023-05-08T03:44:39.448Z,93.91
2023-05-08T03:45:39.842Z,93.95
2023-05-08T03:46:40.032Z,93.96
2023-05-08T03:47:39.425Z,93.96
2023-05-08T03:48:39.498Z,94.00
2023-05-08T03:49:39.370Z,94.00
2023-05-08T03:50:39.563Z,93.98
2023-05-08T03:51:39.453Z,93.90
2023-05-08T03:52:39.638Z,93.77
2023-05-08T03:53:39.649Z,93.72
2023-05-08T03:54:39.653Z,93.70
2023-05-08T03:55:39.956Z,93.69
2023-05-08T03:56:41.665Z,93.67
2023-05-08T03:57:39.782Z,93.61
2023-05-08T03:58:39.687Z,93.61
2023-05-08T03:59:39.414Z,93.64
2023-05-08T04:00:40.554Z,93.64
2023-05-08T04:01:39.405Z,93.63
2023-05-08T04:02:42.101Z,93.58
2023-05-08T04:03:39.710Z,93.60
2023-05-08T04:04:39.652Z,93.64
2023-05-08T04:05:39.867Z,93.73
2023-05-08T04:06:49.224Z,93.81
2023-05-08T04:07:39.403Z,93.84
2023-05-08T04:08:39.369Z,93.80
2023-05-08T04:09:39.481Z,93.72
2023-05-08T04:10:39.689Z,93.68
2023-05-08T04:11:39.500Z,93.67
2023-05-08T04:12:39.465Z,93.67
2023-05-08T04:13:39.576Z,93.66
2023-05-08T04:14:39.506Z,93.66
2023-05-08T04:15:39.572Z,93.63
2023-05-08T04:16:39.620Z,93.61
2023-05-08T04:17:39.689Z,93.64
2023-05-08T04:18:39.522Z,93.62
2023-05-08T04:19:39.996Z,93.61
2023-05-08T04:20:39.492Z,93.65
2023-05-08T04:21:39.531Z,93.69
2023-05-08T04:22:39.541Z,93.74
2023-05-08T04:23:39.530Z,93.77
2023-05-08T04:24:39.546Z,93.82
2023-05-08T04:25:40.056Z,93.82
2023-05-08T04:26:39.378Z,93.81
2023-05-08T04:27:39.592Z,93.79
2023-05-08T04:28:39.738Z,93.82
2023-05-08T04:29:39.657Z,93.85
2023-05-08T04:30:40.402Z,93.88
2023-05-08T04:31:39.651Z,93.90
2023-05-08T04:32:41.316Z,93.89
2023-05-08T04:33:39.719Z,93.90
2023-05-08T04:34:39.668Z,93.93
2023-05-08T04:35:39.628Z,93.91
2023-05-08T04:36:39.690Z,93.89
2023-05-08T04:37:39.625Z,93.85
2023-05-08T04:38:39.512Z,93.84
2023-05-08T04:39:40.545Z,93.85
2023-05-08T04:40:39.997Z,93.83
2023-05-08T04:41:39.411Z,93.82
2023-05-08T04:42:39.681Z,93.87
2023-05-08T04:43:39.903Z,93.84
2023-05-08T04:44:39.582Z,93.85
2023-05-08T04:45:40.078Z,93.81
2023-05-08T04:46:39.486Z,93.81
2023-05-08T04:47:40.060Z,93.77
2023-05-08T04:48:39.464Z,93.78
2023-05-08T04:49:39.781Z,93.75
2023-05-08T04:50:39.995Z,93.71
2023-05-08T04:51:39.465Z,93.66
2023-05-08T04:52:39.984Z,93.61
2023-05-08T04:53:39.505Z,93.57
2023-05-08T04:54:39.721Z,93.58
2023-05-08T04:55:40.014Z,93.58
2023-05-08T04:56:39.575Z,93.59
2023-05-08T04:57:39.989Z,93.60
2023-05-08T04:58:39.472Z,93.59
2023-05-08T04:59:39.843Z,93.61
2023-05-08T05:00:41.558Z,93.65
2023-05-08T05:01:39.861Z,93.66
2023-05-08T05:02:40.660Z,93.62
2023-05-08T05:03:40.647Z,93.59
2023-05-08T05:04:40.316Z,93.59
2023-05-08T05:05:39.808Z,93.55
2023-05-08T05:06:40.150Z,93.59
2023-05-08T05:07:39.784Z,93.61
2023-05-08T05:08:39.836Z,93.69
2023-05-08T05:09:40.087Z,93.75
2023-05-08T05:10:39.981Z,93.77
2023-05-08T05:11:39.864Z,93.74
2023-05-08T05:12:40.048Z,93.74
2023-05-08T05:13:39.579Z,93.74
2023-05-08T05:14:40.379Z,93.73
2023-05-08T05:15:39.934Z,93.76
2023-05-08T05:16:40.610Z,93.78
2023-05-08T05:17:45.276Z,93.82
2023-05-08T05:18:39.960Z,93.85
2023-05-08T05:19:45.471Z,93.92
2023-05-08T05:20:40.272Z,93.93
2023-05-08T05:21:39.971Z,93.96
2023-05-08T05:22:39.747Z,94.00
2023-05-08T05:23:40.262Z,94.03
2023-05-08T05:24:39.733Z,94.08
2023-05-08T05:25:40.229Z,94.19
2023-05-08T05:26:39.609Z,94.21
2023-05-08T05:27:44.994Z,94.21
2023-05-08T05:28:39.703Z,94.23
2023-05-08T05:29:39.926Z,94.27
2023-05-08T05:30:40.159Z,94.33
2023-05-08T05:31:40.286Z,94.32
2023-05-08T05:32:40.139Z,94.36
2023-05-08T05:33:39.779Z,94.37
2023-05-08T05:34:39.826Z,94.42
2023-05-08T05:35:41.127Z,94.44
2023-05-08T05:36:40.804Z,94.43
2023-05-08T05:37:40.124Z,94.31
2023-05-08T05:38:40.041Z,94.27
2023-05-08T05:39:39.556Z,94.19
2023-05-08T05:40:40.003Z,94.13
2023-05-08T05:41:39.424Z,94.12
2023-05-08T05:42:40.169Z,94.09
2023-05-08T05:43:39.392Z,94.09
2023-05-08T05:44:39.742Z,94.13
2023-05-08T05:45:40.010Z,94.16
2023-05-08T05:46:40.572Z,94.20
2023-05-08T05:47:39.839Z,94.22
2023-05-08T05:48:40.042Z,94.21
2023-05-08T05:49:39.304Z,94.23
2023-05-08T05:50:40.126Z,94.20
2023-05-08T05:51:39.529Z,94.26
2023-05-08T05:52:40.204Z,94.26
2023-05-08T05:53:39.665Z,94.22
2023-05-08T05:54:40.171Z,94.28
2023-05-08T05:55:39.871Z,94.35
2023-05-08T05:56:39.859Z,94.40
2023-05-08T05:57:40.240Z,94.43
2023-05-08T05:58:39.569Z,94.39
2023-05-08T05:59:39.845Z,94.37
2023-05-08T06:00:41.392Z,94.29
2023-05-08T06:02:01.906Z,94.24
2023-05-08T06:02:40.078Z,94.26
2023-05-08T06:03:39.849Z,94.26
2023-05-08T06:04:40.357Z,94.26
2023-05-08T06:05:39.786Z,94.26
2023-05-08T06:06:40.256Z,94.30
2023-05-08T06:07:39.988Z,94.33
2023-05-08T06:08:39.672Z,94.37
2023-05-08T06:09:40.095Z,94.44
2023-05-08T06:10:39.910Z,94.50
2023-05-08T06:11:40.132Z,94.52
2023-05-08T06:12:39.429Z,94.56
2023-05-08T06:13:40.091Z,94.57
2023-05-08T06:14:39.346Z,94.63
2023-05-08T06:15:40.178Z,94.74
2023-05-08T06:16:39.748Z,94.76
2023-05-08T06:18:39.846Z,94.65
2023-05-08T06:19:39.854Z,94.60
2023-05-08T06:20:42.166Z,94.57
2023-05-08T06:22:39.245Z,94.52
2023-05-08T06:23:39.485Z,94.48
2023-05-08T06:24:39.721Z,94.46
2023-05-08T06:25:40.152Z,94.43
2023-05-08T06:26:39.598Z,94.43
2023-05-08T06:27:39.996Z,94.47
2023-05-08T06:28:39.837Z,94.44
2023-05-08T06:29:40.215Z,94.48
2023-05-08T06:30:40.038Z,94.49
2023-05-08T06:31:39.877Z,94.52
2023-05-08T06:32:40.236Z,94.52
2023-05-08T06:33:42.366Z,94.57
2023-05-08T06:34:39.526Z,94.58
2023-05-08T06:35:39.913Z,94.63
2023-05-08T06:36:40.471Z,94.55
2023-05-08T06:37:39.686Z,94.58
2023-05-08T06:38:40.129Z,94.68
2023-05-08T06:39:39.824Z,94.72
2023-05-08T06:40:40.058Z,94.59
2023-05-08T06:41:39.546Z,94.58
2023-05-08T06:42:39.881Z,94.69
2023-05-08T06:43:40.065Z,94.68
2023-05-08T06:44:39.550Z,94.66
2023-05-08T06:45:40.298Z,94.66
2023-05-08T06:46:39.961Z,94.58
2023-05-08T06:47:40.103Z,94.56
2023-05-08T06:48:39.958Z,94.69
2023-05-08T06:49:40.459Z,94.77
2023-05-08T06:50:40.255Z,94.86
2023-05-08T06:51:40.118Z,94.87
2023-05-08T06:52:40.220Z,94.90
2023-05-08T06:53:40.407Z,94.91
2023-05-08T06:54:40.116Z,94.90
2023-05-08T06:55:39.833Z,94.85
2023-05-08T06:56:40.096Z,94.77
2023-05-08T06:57:39.823Z,94.71
2023-05-08T06:58:40.172Z,94.71
2023-05-08T06:59:39.775Z,94.73
2023-05-08T07:00:41.284Z,94.80
2023-05-08T07:01:39.830Z,94.78
2023-05-08T07:02:40.615Z,94.80
2023-05-08T07:03:40.512Z,94.93
2023-05-08T07:04:47.955Z,95.07
2023-05-08T07:05:39.865Z,95.01
2023-05-08T07:06:45.473Z,95.01
2023-05-08T07:07:39.967Z,95.02
2023-05-08T07:08:40.429Z,95.03
2023-05-08T07:09:39.791Z,94.80
2023-05-08T07:10:45.414Z,94.57
2023-05-08T07:11:39.833Z,94.39
2023-05-08T07:12:40.317Z,94.33
2023-05-08T07:13:39.825Z,94.35
2023-05-08T07:14:40.424Z,94.38
2023-05-08T07:15:42.720Z,94.48
2023-05-08T07:16:45.099Z,94.51
2023-05-08T07:17:39.921Z,94.51
2023-05-08T07:18:40.654Z,94.59
2023-05-08T07:19:40.146Z,94.58
2023-05-08T07:20:47.798Z,94.55
2023-05-08T07:21:40.394Z,94.45
2023-05-08T07:22:39.777Z,94.35
2023-05-08T07:23:40.155Z,94.37
2023-05-08T07:24:39.539Z,94.37
2023-05-08T07:25:40.268Z,94.33
2023-05-08T07:26:40.036Z,94.30
2023-05-08T07:27:39.637Z,94.34
2023-05-08T07:28:39.927Z,94.29
2023-05-08T07:29:40.209Z,94.18
2023-05-08T07:30:39.984Z,94.10
2023-05-08T07:31:39.719Z,94.00
2023-05-08T07:32:40.225Z,93.93
2023-05-08T07:33:39.844Z,93.91
2023-05-08T07:34:54.303Z,93.80
2023-05-08T07:35:40.040Z,93.71
2023-05-08T07:36:39.408Z,93.54
2023-05-08T07:37:39.821Z,93.49
2023-05-08T07:38:40.099Z,93.59
2023-05-08T07:39:39.535Z,93.66
2023-05-08T07:40:39.967Z,93.68
2023-05-08T07:41:40.121Z,93.72
2023-05-08T07:42:58.979Z,93.79
2023-05-08T07:43:39.411Z,93.73
2023-05-08T07:44:50.994Z,93.57
2023-05-08T07:45:40.103Z,93.41
2023-05-08T07:46:39.897Z,93.40
2023-05-08T07:47:40.513Z,93.42
2023-05-08T07:48:39.879Z,93.65
2023-05-08T07:49:40.307Z,93.45
2023-05-08T07:50:40.746Z,93.22
2023-05-08T07:51:40.082Z,93.09
2023-05-08T07:52:39.689Z,93.12
2023-05-08T07:53:40.441Z,93.13
2023-05-08T07:54:39.897Z,93.08
2023-05-08T07:55:40.363Z,92.88
2023-05-08T07:56:40.387Z,92.72
2023-05-08T07:57:40.469Z,92.69
2023-05-08T07:58:39.827Z,92.36
2023-05-08T07:59:40.792Z,91.78
2023-05-08T08:00:41.380Z,91.44
2023-05-08T08:01:39.914Z,91.16
2023-05-08T08:02:40.766Z,91.15
2023-05-08T08:03:40.779Z,91.18
2023-05-08T08:04:40.816Z,91.17
2023-05-08T08:05:40.630Z,91.22
2023-05-08T08:06:40.156Z,91.07
2023-05-08T08:07:40.058Z,90.96
2023-05-08T08:08:39.758Z,90.77
2023-05-08T08:09:40.311Z,90.91
2023-05-08T08:10:39.997Z,91.09
2023-05-08T08:11:39.840Z,91.32
2023-05-08T08:12:40.608Z,91.56
2023-05-08T08:13:40.179Z,91.60
2023-05-08T08:14:40.077Z,91.39
2023-05-08T08:15:40.122Z,91.06
2023-05-08T08:16:59.087Z,91.00
2023-05-08T08:17:44.048Z,91.05
2023-05-08T08:18:40.070Z,91.02
2023-05-08T08:19:39.732Z,90.81
2023-05-08T08:20:39.959Z,90.69
2023-05-08T08:21:40.309Z,90.89
2023-05-08T08:22:40.160Z,91.10
2023-05-08T08:23:39.726Z,91.25
2023-05-08T08:24:40.143Z,91.46
2023-05-08T08:25:40.117Z,91.78
2023-05-08T08:26:40.078Z,92.07
2023-05-08T08:27:39.896Z,92.14
2023-05-08T08:28:40.369Z,91.90
2023-05-08T08:29:39.672Z,91.75
2023-05-08T08:30:40.987Z,91.67
2023-05-08T08:31:39.964Z,91.71
2023-05-08T08:32:40.135Z,91.86
2023-05-08T08:33:40.201Z,91.98
2023-05-08T08:35:12.228Z,92.11
2023-05-08T08:35:44.778Z,92.21
2023-05-08T08:36:40.924Z,92.31
2023-05-08T08:37:40.557Z,92.42
2023-05-08T08:38:40.534Z,92.56
2023-05-08T08:39:40.166Z,92.65
2023-05-08T08:40:39.987Z,92.67
2023-05-08T08:41:39.709Z,92.68
2023-05-08T08:42:40.450Z,92.71
2023-05-08T08:43:39.691Z,92.71
2023-05-08T08:44:40.241Z,92.65
2023-05-08T08:45:40.172Z,92.59
2023-05-08T08:46:40.204Z,92.50
2023-05-08T08:47:40.378Z,92.35
2023-05-08T08:48:39.853Z,92.18
2023-05-08T08:49:40.441Z,92.20
2023-05-08T08:50:40.492Z,92.10
2023-05-08T08:51:40.247Z,92.05
2023-05-08T08:52:40.130Z,92.00
2023-05-08T08:53:40.244Z,92.01
2023-05-08T08:54:39.875Z,91.92
2023-05-08T08:55:40.171Z,91.62
2023-05-08T08:56:39.929Z,91.50
2023-05-08T08:57:40.321Z,91.38
2023-05-08T08:58:40.207Z,91.15
2023-05-08T08:59:40.135Z,90.84
2023-05-08T09:01:40.292Z,90.72
2023-05-08T09:02:40.302Z,90.95
2023-05-08T09:03:40.070Z,91.08
2023-05-08T09:04:39.982Z,91.24
2023-05-08T09:05:39.593Z,91.40
2023-05-08T09:06:39.995Z,91.53
2023-05-08T09:07:39.972Z,91.56
2023-05-08T09:08:40.422Z,91.54
2023-05-08T09:09:40.364Z,91.26
2023-05-08T09:10:40.533Z,91.05
2023-05-08T09:11:40.331Z,91.04
2023-05-08T09:12:40.356Z,91.06
2023-05-08T09:13:39.876Z,90.89
2023-05-08T09:14:40.438Z,90.72
2023-05-08T09:15:39.920Z,90.62
2023-05-08T09:16:40.725Z,90.69
2023-05-08T09:17:40.530Z,90.93
2023-05-08T09:18:39.950Z,91.14
2023-05-08T09:19:44.353Z,91.26
2023-05-08T09:20:40.109Z,91.03
2023-05-08T09:21:39.536Z,90.54
2023-05-08T09:22:40.505Z,90.26
2023-05-08T09:23:39.647Z,90.26
2023-05-08T09:24:40.517Z,90.55
2023-05-08T09:25:40.453Z,90.79
2023-05-08T09:26:39.964Z,90.76
2023-05-08T09:27:40.159Z,90.53
2023-05-08T09:28:39.604Z,90.50
2023-05-08T09:29:44.983Z,90.58
2023-05-08T09:30:40.067Z,90.64
2023-05-08T09:31:48.013Z,90.73
2023-05-08T09:32:39.715Z,90.91
2023-05-08T09:33:45.055Z,91.01
2023-05-08T09:34:39.709Z,91.02
2023-05-08T09:35:45.290Z,90.90
2023-05-08T09:36:39.952Z,90.80
2023-05-08T09:37:40.339Z,90.69
2023-05-08T09:38:39.932Z,90.57
2023-05-08T09:39:45.212Z,90.45
2023-05-08T09:40:39.652Z,90.41
2023-05-08T09:41:40.252Z,90.52
2023-05-08T09:42:39.975Z,90.62
2023-05-08T09:43:47.645Z,90.68
2023-05-08T09:44:40.086Z,90.65
2023-05-08T09:45:48.421Z,90.61
2023-05-08T09:46:40.146Z,90.64
2023-05-08T09:47:47.938Z,90.73
2023-05-08T09:48:40.535Z,90.80
2023-05-08T09:49:40.290Z,90.77
2023-05-08T09:50:41.653Z,90.73
2023-05-08T09:51:40.400Z,90.63
2023-05-08T09:52:39.906Z,90.68
2023-05-08T09:53:53.519Z,90.72
2023-05-08T09:54:40.475Z,90.75
2023-05-08T09:55:39.987Z,90.76
2023-05-08T09:56:40.028Z,90.76
2023-05-08T09:57:39.947Z,90.82
2023-05-08T09:58:40.289Z,90.84
2023-05-08T09:59:40.053Z,90.88
2023-05-08T10:00:40.842Z,90.90
2023-05-08T10:01:40.854Z,90.72
2023-05-08T10:02:40.670Z,90.49
2023-05-08T10:03:59.085Z,90.40
2023-05-08T10:04:40.064Z,90.38
2023-05-08T10:05:40.352Z,90.37
2023-05-08T10:06:40.059Z,90.40
2023-05-08T10:07:59.021Z,90.53
2023-05-08T10:08:39.585Z,90.53
2023-05-08T10:09:50.440Z,90.55
2023-05-08T10:10:40.197Z,90.54
2023-05-08T10:11:44.881Z,90.43
2023-05-08T10:12:40.619Z,90.41
2023-05-08T10:13:40.258Z,90.34
2023-05-08T10:14:39.756Z,90.39
2023-05-08T10:15:40.609Z,90.53
2023-05-08T10:16:40.290Z,90.61
2023-05-08T10:17:40.270Z,90.74
2023-05-08T10:18:39.881Z,90.65
2023-05-08T10:19:40.194Z,90.48
2023-05-08T10:20:39.917Z,90.32
2023-05-08T10:21:40.245Z,90.30
2023-05-08T10:22:39.708Z,90.34
2023-05-08T10:23:40.301Z,90.27
2023-05-08T10:24:39.767Z,90.23
2023-05-08T10:25:40.135Z,90.20
2023-05-08T10:26:42.095Z,90.14
2023-05-08T10:27:40.449Z,90.11
2023-05-08T10:28:40.030Z,90.11
2023-05-08T10:29:39.974Z,90.09
2023-05-08T10:30:40.362Z,90.00
2023-05-08T10:31:40.586Z,89.66
2023-05-08T10:32:40.854Z,89.47
2023-05-08T10:33:40.743Z,89.39
2023-05-08T10:34:40.942Z,89.35
2023-05-08T10:35:54.955Z,89.23
2023-05-08T10:36:41.046Z,89.14
2023-05-08T10:37:54.248Z,89.13
2023-05-08T10:38:39.676Z,88.62
2023-05-08T10:39:40.331Z,88.20
2023-05-08T10:40:40.148Z,88.12
2023-05-08T10:41:40.107Z,88.01
2023-05-08T10:42:39.921Z,88.12
2023-05-08T10:43:40.676Z,88.19
2023-05-08T10:44:40.257Z,88.03
2023-05-08T10:45:40.591Z,88.06
2023-05-08T10:46:40.489Z,87.94
2023-05-08T10:47:40.173Z,87.33
2023-05-08T10:48:40.109Z,87.26
2023-05-08T10:49:40.153Z,87.31
2023-05-08T10:50:40.481Z,87.48
2023-05-08T10:51:59.415Z,87.71
2023-05-08T10:52:40.157Z,87.59
2023-05-08T10:53:39.982Z,87.00
2023-05-08T10:54:39.895Z,86.76
2023-05-08T10:55:40.498Z,86.74
2023-05-08T10:56:40.178Z,86.50
2023-05-08T10:57:39.899Z,86.16
2023-05-08T10:58:40.442Z,86.01
2023-05-08T10:59:40.390Z,85.75
2023-05-08T11:00:40.903Z,85.91
2023-05-08T11:02:40.481Z,85.93
2023-05-08T11:03:48.230Z,85.73
2023-05-08T11:04:40.173Z,85.80
2023-05-08T11:05:40.132Z,85.71
2023-05-08T11:06:39.890Z,85.70
2023-05-08T11:07:40.516Z,85.82
2023-05-08T11:08:40.329Z,85.91
2023-05-08T11:09:40.114Z,85.96
2023-05-08T11:10:40.058Z,86.19
2023-05-08T11:11:39.904Z,86.27
2023-05-08T11:12:40.524Z,86.25
2023-05-08T11:13:40.380Z,86.45
2023-05-08T11:14:40.019Z,86.67
2023-05-08T11:15:41.262Z,86.55
2023-05-08T11:16:40.489Z,85.87
2023-05-08T11:18:49.392Z,85.97
2023-05-08T11:19:40.246Z,86.17
2023-05-08T11:20:40.177Z,86.20
2023-05-08T11:21:39.929Z,86.05
2023-05-08T11:22:40.489Z,85.79
2023-05-08T11:23:39.976Z,85.51
2023-05-08T11:24:40.242Z,85.22
2023-05-08T11:25:40.438Z,85.05
2023-05-08T11:26:39.971Z,85.09
2023-05-08T11:27:40.620Z,85.12
2023-05-08T11:28:40.413Z,85.36
2023-05-08T11:29:40.369Z,85.61
2023-05-08T11:30:40.752Z,85.87
2023-05-08T11:31:40.634Z,86.09
2023-05-08T11:32:40.288Z,86.15
2023-05-08T11:33:39.898Z,86.01
2023-05-08T11:34:40.739Z,85.99
2023-05-08T11:35:40.701Z,85.89
2023-05-08T11:36:40.458Z,85.89
2023-05-08T11:37:40.056Z,85.91
2023-05-08T11:38:40.005Z,86.01
2023-05-08T11:39:40.019Z,86.11
2023-05-08T11:40:40.110Z,86.10
2023-05-08T11:41:40.165Z,85.75
2023-05-08T11:42:40.261Z,85.89
2023-05-08T11:43:39.812Z,85.58
2023-05-08T11:44:40.103Z,85.42
2023-05-08T11:45:40.120Z,85.35
2023-05-08T11:46:40.252Z,85.08
2023-05-08T11:47:40.254Z,84.97
2023-05-08T11:48:39.892Z,85.02
2023-05-08T11:49:44.750Z,85.16
2023-05-08T11:50:40.574Z,85.29
2023-05-08T11:51:40.118Z,85.45
2023-05-08T11:52:40.003Z,85.49
2023-05-08T11:53:40.046Z,85.42
2023-05-08T11:54:44.796Z,85.07
2023-05-08T11:55:40.737Z,84.95
2023-05-08T11:56:40.610Z,84.67
2023-05-08T11:57:40.592Z,84.57
2023-05-08T11:58:40.190Z,84.62
2023-05-08T11:59:40.433Z,84.92
2023-05-08T12:00:45.907Z,84.81
2023-05-08T12:01:40.864Z,84.63
2023-05-08T12:02:40.988Z,84.48
2023-05-08T12:03:40.670Z,84.20
2023-05-08T12:04:40.703Z,83.83
2023-05-08T12:05:40.931Z,83.85
2023-05-08T12:06:41.154Z,83.78
2023-05-08T12:07:40.149Z,83.88
2023-05-08T12:08:48.040Z,83.89
2023-05-08T12:09:39.916Z,83.75
2023-05-08T12:10:40.869Z,83.80
2023-05-08T12:11:40.261Z,83.91
2023-05-08T12:12:40.364Z,84.19
2023-05-08T12:13:40.183Z,84.24
2023-05-08T12:14:40.046Z,84.12
2023-05-08T12:15:39.841Z,84.10
2023-05-08T12:16:40.410Z,84.03
2023-05-08T12:17:40.190Z,83.87
2023-05-08T12:18:40.202Z,83.75
2023-05-08T12:19:40.018Z,83.68
2023-05-08T12:20:40.005Z,83.59
2023-05-08T12:21:39.985Z,83.48
2023-05-08T12:22:39.680Z,83.59
2023-05-08T12:23:40.129Z,83.77
2023-05-08T12:24:39.991Z,83.38
2023-05-08T12:25:39.743Z,82.94
2023-05-08T12:26:40.163Z,82.62
2023-05-08T12:27:40.133Z,81.82
2023-05-08T12:28:58.949Z,81.08
2023-05-08T12:29:41.267Z,80.45
2023-05-08T12:30:40.415Z,80.08
2023-05-08T12:31:39.985Z,79.71
2023-05-08T12:32:39.824Z,79.89
2023-05-08T12:33:40.505Z,80.13
2023-05-08T12:34:39.807Z,80.53
2023-05-08T12:35:40.300Z,80.71
2023-05-08T12:36:39.663Z,80.65
2023-05-08T12:37:40.043Z,80.61
2023-05-08T12:38:39.484Z,80.58
2023-05-08T12:39:40.153Z,80.51
2023-05-08T12:40:40.254Z,80.47
2023-05-08T12:41:40.049Z,80.41
2023-05-08T12:42:39.618Z,80.38
2023-05-08T12:43:40.186Z,80.34
2023-05-08T12:44:39.800Z,80.37
2023-05-08T12:45:40.532Z,80.28
2023-05-08T12:46:48.389Z,80.18
2023-05-08T12:47:40.399Z,79.40
2023-05-08T12:48:48.084Z,79.27
2023-05-08T12:49:39.942Z,78.85
2023-05-08T12:50:40.751Z,78.75
2023-05-08T12:51:40.592Z,78.63
2023-05-08T12:52:40.238Z,78.69
2023-05-08T12:53:40.343Z,77.70
2023-05-08T12:54:40.150Z,77.67
2023-05-08T12:55:40.330Z,78.16
2023-05-08T12:56:40.717Z,78.51
2023-05-08T12:57:40.543Z,78.98